createdAt,value
2017-05-08T00:00:59.114Z,84.70
2017-05-08T00:03:26.554Z,84.82
2017-05-08T00:05:53.994Z,84.87
2017-05-08T00:08:21.445Z,84.74
2017-05-08T00:10:48.886Z,84.72
2017-05-08T00:13:16.326Z,85.00
2017-05-08T00:15:43.792Z,84.96
2017-05-08T00:18:11.231Z,84.71
2017-05-08T00:20:38.670Z,84.74
2017-05-08T00:23:06.127Z,84.72
2017-05-08T00:25:33.561Z,84.72
2017-05-08T00:28:01.000Z,84.74
2017-05-08T00:30:28.454Z,84.76
2017-05-08T00:32:55.890Z,84.67
2017-05-08T00:35:23.329Z,84.94
2017-05-08T00:37:50.794Z,84.78
2017-05-08T00:40:18.230Z,84.93
2017-05-08T00:42:45.671Z,84.99
2017-05-08T00:45:13.128Z,84.89
2017-05-08T00:47:40.578Z,84.86
2017-05-08T00:50:08.022Z,85.00
2017-05-08T00:52:35.470Z,84.91
2017-05-08T00:55:02.911Z,85.10
2017-05-08T00:57:30.345Z,85.15
2017-05-08T00:59:57.797Z,84.84
2017-05-08T01:02:25.237Z,85.25
2017-05-08T01:04:52.673Z,84.99
2017-05-08T01:07:20.129Z,84.91
2017-05-08T01:09:47.570Z,85.10
2017-05-08T01:12:15.005Z,85.10
2017-05-08T01:14:42.448Z,85.09
2017-05-08T01:17:09.883Z,85.14
2017-05-08T01:19:37.314Z,85.21
2017-05-08T01:22:04.770Z,85.11
2017-05-08T01:24:32.202Z,84.90
2017-05-08T01:26:59.674Z,85.07
2017-05-08T01:29:27.147Z,85.16
2017-05-08T01:31:54.583Z,85.35
2017-05-08T01:34:22.035Z,85.39
2017-05-08T01:36:49.482Z,85.13
2017-05-08T01:39:16.917Z,85.50
2017-05-08T01:41:44.346Z,85.42
2017-05-08T01:44:12.486Z,85.56
2017-05-08T01:46:39.922Z,85.60
2017-05-08T01:49:07.357Z,85.58
2017-05-08T01:51:34.819Z,85.80
2017-05-08T01:54:02.263Z,85.80
2017-05-08T01:56:29.697Z,85.35
2017-05-08T01:58:57.192Z,85.76
2017-05-08T02:01:24.641Z,85.53
2017-05-08T02:03:52.091Z,85.42
2017-05-08T02:06:19.549Z,85.42
2017-05-08T02:08:46.982Z,85.45
2017-05-08T02:11:14.478Z,85.66
2017-05-08T02:13:41.939Z,85.62
2017-05-08T02:16:09.400Z,85.63
2017-05-08T02:18:36.819Z,85.45
2017-05-08T02:21:04.279Z,85.48
2017-05-08T02:23:31.722Z,85.67
2017-05-08T02:25:59.174Z,85.50
2017-05-08T02:28:26.630Z,85.60
2017-05-08T02:30:54.066Z,85.61
2017-05-08T02:33:21.495Z,85.57
2017-05-08T02:35:48.962Z,85.57
2017-05-08T02:38:16.398Z,85.48
2017-05-08T02:40:43.826Z,85.62
2017-05-08T02:43:11.412Z,85.66
2017-05-08T02:45:38.870Z,85.80
2017-05-08T02:48:06.302Z,85.48
2017-05-08T02:50:33.753Z,85.82
2017-05-08T02:53:01.186Z,85.71
2017-05-08T02:55:29.611Z,85.62
2017-05-08T02:57:57.074Z,85.92
2017-05-08T03:00:24.870Z,85.25
2017-05-08T03:02:52.578Z,85.08
2017-05-08T03:05:20.040Z,84.78
2017-05-08T03:07:47.470Z,85.05
2017-05-08T03:10:14.902Z,84.82
2017-05-08T03:12:42.375Z,84.42
2017-05-08T03:15:09.814Z,84.49
2017-05-08T03:17:37.250Z,84.92
2017-05-08T03:20:04.703Z,85.01
2017-05-08T03:22:32.138Z,85.28
2017-05-08T03:24:59.571Z,84.91
2017-05-08T03:27:27.027Z,84.98
2017-05-08T03:29:54.459Z,85.04
2017-05-08T03:32:21.889Z,85.16
2017-05-08T03:34:49.342Z,85.28
2017-05-08T03:37:16.781Z,85.05
2017-05-08T03:39:44.406Z,85.09
2017-05-08T03:42:11.877Z,84.90
2017-05-08T03:44:39.305Z,84.53
2017-05-08T03:47:06.735Z,84.18
2017-05-08T03:49:34.190Z,83.56
2017-05-08T03:52:01.622Z,83.56
2017-05-08T03:54:29.090Z,83.72
2017-05-08T03:56:56.547Z,83.86
2017-05-08T03:59:23.983Z,84.00
2017-05-08T04:01:51.423Z,84.63
2017-05-08T04:04:18.902Z,83.96
2017-05-08T04:06:46.338Z,83.46
2017-05-08T04:09:13.770Z,83.40
2017-05-08T04:11:41.230Z,83.27
2017-05-08T04:14:08.667Z,82.94
2017-05-08T04:16:36.103Z,82.79
2017-05-08T04:19:03.552Z,82.24
2017-05-08T04:21:30.991Z,82.40
2017-05-08T04:23:58.418Z,82.83
2017-05-08T04:26:25.870Z,83.83
2017-05-08T04:28:53.312Z,83.81
2017-05-08T04:31:20.751Z,83.33
2017-05-08T04:33:48.218Z,83.22
2017-05-08T04:36:15.646Z,83.75
2017-05-08T04:38:43.082Z,82.75
2017-05-08T04:41:10.530Z,82.49
2017-05-08T04:43:37.961Z,83.14
2017-05-08T04:46:05.390Z,82.92
2017-05-08T04:48:32.846Z,82.92
2017-05-08T04:51:00.278Z,83.27
2017-05-08T04:53:27.722Z,82.15
2017-05-08T04:55:55.174Z,82.17
2017-05-08T04:58:22.606Z,82.52
2017-05-08T05:00:50.037Z,82.29
2017-05-08T05:03:17.494Z,82.35
2017-05-08T05:05:44.946Z,82.04
2017-05-08T05:08:12.391Z,82.30
2017-05-08T05:10:39.919Z,82.02
2017-05-08T05:13:07.383Z,82.04
2017-05-08T05:15:34.826Z,82.38
2017-05-08T05:18:02.293Z,82.56
2017-05-08T05:20:29.757Z,82.01
2017-05-08T05:22:57.207Z,81.58
2017-05-08T05:25:24.666Z,81.99
2017-05-08T05:27:52.107Z,82.17
2017-05-08T05:30:19.542Z,81.87
2017-05-08T05:32:46.990Z,82.10
2017-05-08T05:35:14.578Z,82.09
2017-05-08T05:37:42.022Z,81.46
2017-05-08T05:40:09.488Z,81.75
2017-05-08T05:42:36.993Z,81.35
2017-05-08T05:45:04.430Z,81.30
2017-05-08T05:47:31.891Z,80.89
2017-05-08T05:49:59.327Z,81.16
2017-05-08T05:52:26.758Z,81.37
2017-05-08T05:54:54.210Z,81.30
2017-05-08T05:57:21.642Z,81.12
2017-05-08T05:59:49.074Z,80.80
2017-05-08T06:02:16.534Z,81.03
2017-05-08T06:04:43.974Z,81.01
2017-05-08T06:07:11.430Z,80.60
2017-05-08T06:09:38.886Z,81.28
2017-05-08T06:12:06.330Z,80.27
2017-05-08T06:14:33.767Z,80.10
2017-05-08T06:17:01.218Z,79.93
2017-05-08T06:19:28.650Z,79.13
2017-05-08T06:21:56.090Z,78.68
2017-05-08T06:24:23.552Z,78.52
2017-05-08T06:26:50.994Z,79.10
2017-05-08T06:29:18.427Z,79.45
2017-05-08T06:31:45.886Z,79.00
2017-05-08T06:34:13.321Z,78.55
2017-05-08T06:36:40.749Z,78.37
2017-05-08T06:39:08.226Z,78.73
2017-05-08T06:41:35.657Z,78.70
2017-05-08T06:44:03.086Z,78.28
2017-05-08T06:46:30.538Z,77.80
2017-05-08T06:48:57.984Z,77.92
2017-05-08T06:51:25.425Z,77.74
2017-05-08T06:53:52.875Z,77.91
2017-05-08T06:56:20.306Z,78.83
2017-05-08T06:58:47.748Z,77.97
2017-05-08T07:01:15.201Z,77.97
2017-05-08T07:03:42.631Z,78.66
2017-05-08T07:06:10.068Z,78.45
2017-05-08T07:08:37.517Z,77.99
2017-05-08T07:11:04.951Z,78.14
2017-05-08T07:13:32.383Z,77.25
2017-05-08T07:15:59.834Z,77.69
2017-05-08T07:18:27.267Z,77.63
2017-05-08T07:20:54.702Z,76.83
2017-05-08T07:23:22.162Z,76.86
2017-05-08T07:25:49.600Z,77.07
2017-05-08T07:28:17.029Z,78.15
2017-05-08T07:30:44.474Z,78.14
2017-05-08T07:33:11.907Z,77.50
2017-05-08T07:35:39.355Z,77.81
2017-05-08T07:38:06.787Z,77.71
2017-05-08T07:40:34.218Z,77.17
2017-05-08T07:43:01.663Z,77.19
2017-05-08T07:45:29.110Z,76.22
2017-05-08T07:47:56.539Z,75.36
2017-05-08T07:50:23.994Z,74.66
2017-05-08T07:52:51.431Z,75.28
2017-05-08T07:55:18.918Z,75.68
2017-05-08T07:57:46.369Z,75.45
2017-05-08T08:00:13.800Z,75.26
2017-05-08T08:02:41.243Z,74.98
2017-05-08T08:05:08.706Z,74.71
2017-05-08T08:07:36.143Z,75.02
2017-05-08T08:10:03.574Z,75.57
2017-05-08T08:12:31.026Z,75.41
2017-05-08T08:14:58.460Z,75.26
2017-05-08T08:17:25.885Z,75.19
2017-05-08T08:19:53.352Z,74.24
2017-05-08T08:22:20.790Z,73.01
2017-05-08T08:24:48.223Z,73.17
2017-05-08T08:27:15.683Z,73.71
2017-05-08T08:29:43.110Z,73.89
2017-05-08T08:32:10.542Z,73.75
2017-05-08T08:34:37.987Z,74.12
2017-05-08T08:37:05.455Z,73.87
2017-05-08T08:39:32.889Z,74.09
2017-05-08T08:42:00.341Z,74.43
2017-05-08T08:44:27.770Z,74.12
2017-05-08T08:46:55.202Z,73.41
2017-05-08T08:49:22.661Z,73.01
2017-05-08T08:51:50.098Z,73.33
2017-05-08T08:54:17.534Z,73.56
2017-05-08T08:56:45.025Z,74.12
2017-05-08T08:59:12.454Z,73.87
2017-05-08T09:01:39.893Z,74.09
2017-05-08T09:04:07.354Z,73.71
2017-05-08T09:06:36.785Z,74.04
2017-05-08T09:09:04.839Z,74.27
2017-05-08T09:11:32.302Z,75.00
2017-05-08T09:13:59.742Z,74.97
2017-05-08T09:16:27.182Z,74.74
2017-05-08T09:18:54.651Z,74.71
2017-05-08T09:21:22.094Z,75.03
2017-05-08T09:23:49.530Z,75.31
2017-05-08T09:26:16.973Z,74.52
2017-05-08T09:28:44.403Z,74.60
2017-05-08T09:31:11.842Z,74.83
2017-05-08T09:33:39.297Z,75.09
2017-05-08T09:36:06.730Z,75.07
2017-05-08T09:38:34.167Z,75.12
2017-05-08T09:41:01.645Z,75.05
2017-05-08T09:43:29.078Z,74.85
2017-05-08T09:45:56.510Z,74.59
2017-05-08T09:48:23.967Z,73.80
2017-05-08T09:50:51.401Z,73.25
2017-05-08T09:53:18.834Z,72.86
2017-05-08T09:55:46.290Z,73.39
2017-05-08T09:58:13.717Z,73.58
2017-05-08T10:00:41.142Z,73.48
2017-05-08T10:03:08.598Z,73.41
2017-05-08T10:05:36.033Z,73.51
2017-05-08T10:08:04.386Z,73.78
2017-05-08T10:10:31.837Z,73.53
2017-05-08T10:12:59.293Z,73.22
2017-05-08T10:15:26.730Z,72.71
2017-05-08T10:17:54.188Z,72.55
2017-05-08T10:20:21.626Z,72.72
2017-05-08T10:22:49.058Z,73.38
2017-05-08T10:25:16.526Z,73.19
2017-05-08T10:27:43.962Z,73.50
2017-05-08T10:30:11.392Z,73.63
2017-05-08T10:32:38.851Z,73.44
2017-05-08T10:35:07.242Z,73.16
2017-05-08T10:37:34.678Z,73.41
2017-05-08T10:40:02.139Z,73.30
2017-05-08T10:42:29.581Z,73.17
2017-05-08T10:44:57.013Z,73.29
2017-05-08T10:47:24.473Z,73.61
2017-05-08T10:49:51.898Z,73.19
2017-05-08T10:52:19.341Z,72.71
2017-05-08T10:54:46.794Z,72.43
2017-05-08T10:57:14.227Z,72.29
2017-05-08T10:59:41.659Z,72.37
2017-05-08T11:02:09.114Z,73.03
2017-05-08T11:04:36.550Z,72.68
2017-05-08T11:07:03.981Z,72.28
2017-05-08T11:09:31.438Z,72.77
2017-05-08T11:11:58.879Z,72.80
2017-05-08T11:14:26.314Z,73.14
2017-05-08T11:16:53.770Z,73.05
2017-05-08T11:19:21.215Z,73.45
2017-05-08T11:21:48.643Z,73.25
2017-05-08T11:24:16.098Z,73.41
2017-05-08T11:26:43.530Z,73.48
2017-05-08T11:29:10.961Z,73.18
2017-05-08T11:31:38.413Z,72.57
2017-05-08T11:34:05.841Z,71.86
2017-05-08T11:36:33.273Z,71.46
2017-05-08T11:39:00.733Z,71.12
2017-05-08T11:41:28.165Z,71.11
2017-05-08T11:43:55.582Z,71.24
2017-05-08T11:46:23.035Z,71.04
2017-05-08T11:48:50.466Z,70.54
2017-05-08T11:51:17.902Z,70.21
2017-05-08T11:53:45.353Z,70.01
2017-05-08T11:56:12.782Z,70.11
2017-05-08T11:58:40.219Z,70.55
2017-05-08T12:01:07.671Z,69.91
2017-05-08T12:03:35.102Z,69.53
2017-05-08T12:06:02.534Z,69.64
2017-05-08T12:08:29.990Z,70.17
2017-05-08T12:10:57.425Z,69.98
2017-05-08T12:13:24.854Z,69.70
2017-05-08T12:15:52.298Z,69.34
2017-05-08T12:18:19.718Z,69.67
2017-05-08T12:20:47.190Z,69.83
2017-05-08T12:23:14.633Z,69.78
2017-05-08T12:25:42.057Z,69.08
2017-05-08T12:28:09.487Z,68.86
2017-05-08T12:30:36.945Z,68.35
2017-05-08T12:33:04.377Z,68.66
2017-05-08T12:35:31.805Z,68.45
2017-05-08T12:37:59.250Z,68.44
2017-05-08T12:40:26.670Z,68.63
2017-05-08T12:42:54.102Z,68.49
2017-05-08T12:45:21.558Z,69.07
2017-05-08T12:47:48.986Z,69.15
2017-05-08T12:50:16.421Z,69.10
2017-05-08T12:52:44.781Z,68.68
2017-05-08T12:55:12.217Z,68.68
2017-05-08T12:57:39.678Z,68.61
2017-05-08T13:00:07.137Z,68.87
2017-05-08T13:02:34.593Z,69.35
2017-05-08T13:05:02.031Z,68.80
2017-05-08T13:07:29.542Z,69.81
2017-05-08T13:09:57.000Z,69.70
2017-05-08T13:12:32.774Z,69.67
2017-05-08T13:15:00.264Z,69.89
2017-05-08T13:17:28.653Z,69.46
2017-05-08T13:19:56.126Z,70.20
2017-05-08T13:22:23.555Z,69.67
2017-05-08T13:24:50.991Z,69.57
2017-05-08T13:27:19.400Z,69.06
2017-05-08T13:29:46.841Z,69.19
2017-05-08T13:32:16.270Z,69.19
2017-05-08T13:34:43.730Z,68.73
2017-05-08T13:37:24.125Z,68.48
2017-05-08T13:39:55.350Z,68.08
2017-05-08T13:42:22.787Z,67.83
2017-05-08T13:44:50.217Z,67.76
2017-05-08T13:47:17.649Z,67.77
2017-05-08T13:49:45.074Z,67.87
2017-05-08T13:52:12.518Z,66.54
2017-05-08T13:54:39.965Z,66.58
2017-05-08T13:57:07.403Z,66.15
2017-05-08T13:59:48.916Z,67.36
2017-05-08T14:02:16.366Z,66.74
2017-05-08T14:04:43.797Z,66.75
2017-05-08T14:07:11.248Z,67.12
2017-05-08T14:09:38.673Z,66.55
2017-05-08T14:12:06.106Z,66.79
2017-05-08T14:14:33.542Z,67.10
2017-05-08T14:17:00.978Z,66.16
2017-05-08T14:19:28.422Z,66.03
2017-05-08T14:22:03.573Z,65.91
2017-05-08T14:24:31.051Z,65.59
2017-05-08T14:27:02.930Z,65.25
2017-05-08T14:29:30.383Z,65.44
2017-05-08T14:31:57.824Z,65.40
2017-05-08T14:34:25.253Z,64.70
2017-05-08T14:36:52.683Z,65.07
2017-05-08T14:39:20.545Z,64.39
2017-05-08T14:41:47.979Z,63.94
2017-05-08T14:44:15.405Z,64.32
2017-05-08T14:46:42.849Z,64.66
2017-05-08T14:49:10.287Z,63.83
2017-05-08T14:51:37.747Z,63.67
2017-05-08T14:54:05.181Z,63.03
2017-05-08T14:56:32.727Z,63.21
2017-05-08T14:59:00.250Z,62.87
2017-05-08T15:01:27.691Z,62.80
2017-05-08T15:03:55.117Z,63.72
2017-05-08T15:06:22.558Z,64.36
2017-05-08T15:08:49.988Z,64.24
2017-05-08T15:11:17.486Z,63.16
2017-05-08T15:13:44.941Z,63.45
2017-05-08T15:16:13.342Z,63.67
2017-05-08T15:18:40.794Z,63.26
2017-05-08T15:21:08.234Z,63.45
2017-05-08T15:23:35.715Z,63.90
2017-05-08T15:26:03.190Z,63.83
2017-05-08T15:28:30.671Z,63.17
2017-05-08T15:30:58.117Z,63.35
2017-05-08T15:33:25.586Z,63.65
2017-05-08T15:35:56.900Z,62.93
2017-05-08T15:38:24.358Z,63.09
2017-05-08T15:40:51.826Z,63.23
2017-05-08T15:43:19.258Z,63.13
2017-05-08T15:45:47.654Z,62.94
2017-05-08T15:48:15.134Z,62.41
2017-05-08T15:50:42.594Z,63.04
2017-05-08T15:53:10.038Z,62.18
2017-05-08T15:58:34.456Z,62.57
2017-05-08T16:01:01.931Z,62.31
2017-05-08T16:03:29.394Z,61.71
2017-05-08T16:05:56.867Z,61.65
2017-05-08T16:08:30.339Z,62.00
2017-05-08T16:10:57.790Z,61.90
2017-05-08T16:13:25.254Z,61.76
2017-05-08T16:15:56.271Z,62.31
2017-05-08T16:18:23.786Z,61.28
2017-05-08T16:20:51.233Z,60.38
2017-05-08T16:23:18.726Z,60.73
2017-05-08T16:25:47.610Z,61.14
2017-05-08T16:28:22.930Z,61.60
2017-05-08T16:30:50.370Z,61.41
2017-05-08T16:33:17.841Z,60.74
2017-05-08T16:35:46.268Z,61.05
2017-05-08T16:38:17.199Z,61.50
2017-05-08T16:40:44.703Z,61.04
2017-05-08T16:43:12.213Z,61.87
2017-05-08T16:45:47.560Z,61.72
2017-05-08T16:48:15.046Z,62.15
2017-05-08T16:50:42.513Z,62.05
2017-05-08T16:53:09.966Z,61.75
2017-05-08T16:55:37.492Z,61.62
2017-05-08T16:58:04.999Z,62.07
2017-05-08T17:00:32.473Z,62.58
2017-05-08T17:02:59.915Z,62.40
2017-05-08T17:05:27.360Z,62.30
2017-05-08T17:08:05.776Z,62.32
2017-05-08T17:10:33.303Z,62.51
2017-05-08T17:13:00.738Z,62.29
2017-05-08T17:15:29.318Z,62.46
2017-05-08T17:17:56.767Z,62.91
2017-05-08T17:20:24.229Z,63.46
2017-05-08T17:22:51.734Z,63.21
2017-05-08T17:25:19.193Z,63.69
2017-05-08T17:27:46.675Z,63.75
2017-05-08T17:30:14.130Z,64.12
2017-05-08T17:32:41.566Z,63.83
2017-05-08T17:35:09.043Z,64.13
2017-05-08T17:37:36.526Z,64.30
2017-05-08T17:40:04.040Z,65.35
2017-05-08T17:42:31.510Z,65.01
2017-05-08T17:44:59.023Z,64.99
2017-05-08T17:47:26.503Z,65.69
2017-05-08T17:49:53.939Z,65.92
2017-05-08T17:52:21.386Z,66.10
2017-05-08T17:54:48.813Z,65.69
2017-05-08T17:57:16.242Z,65.67
2017-05-08T17:59:43.678Z,65.82
2017-05-08T18:02:11.103Z,66.01
2017-05-08T18:04:38.521Z,66.21
2017-05-08T18:07:05.974Z,66.38
2017-05-08T18:09:33.410Z,66.43
2017-05-08T18:12:00.837Z,66.93
2017-05-08T18:14:28.283Z,67.31
2017-05-08T18:16:55.797Z,66.96
2017-05-08T18:19:23.249Z,66.82
2017-05-08T18:21:50.702Z,67.62
2017-05-08T18:24:18.138Z,67.84
2017-05-08T18:26:45.593Z,67.53
2017-05-08T18:29:13.069Z,68.55
2017-05-08T18:31:40.518Z,68.24
2017-05-08T18:34:07.970Z,68.15
2017-05-08T18:36:35.432Z,67.71
2017-05-08T18:39:02.897Z,67.70
2017-05-08T18:41:30.388Z,67.77
2017-05-08T18:43:57.893Z,68.31
2017-05-08T18:46:25.340Z,68.76
2017-05-08T18:48:52.785Z,69.61
2017-05-08T18:51:20.258Z,69.61
2017-05-08T18:53:47.695Z,68.96
2017-05-08T18:56:15.138Z,68.69
2017-05-08T18:58:42.629Z,68.77
2017-05-08T19:01:10.059Z,68.73
2017-05-08T19:03:37.489Z,68.95
2017-05-08T19:06:04.953Z,69.00
2017-05-08T19:08:32.391Z,69.19
2017-05-08T19:10:59.839Z,69.49
2017-05-08T19:13:27.295Z,69.70
2017-05-08T19:15:54.734Z,69.68
2017-05-08T19:18:22.298Z,69.91
2017-05-08T19:20:49.756Z,69.65
2017-05-08T19:23:17.199Z,69.56
2017-05-08T19:25:44.635Z,69.96
2017-05-08T19:28:12.102Z,70.25
2017-05-08T19:30:41.505Z,70.34
2017-05-08T19:33:09.327Z,71.03
2017-05-08T19:35:36.785Z,70.96
2017-05-08T19:38:04.226Z,70.98
2017-05-08T19:40:31.662Z,71.01
2017-05-08T19:42:59.122Z,71.04
2017-05-08T19:45:26.552Z,71.03
2017-05-08T19:47:54.105Z,71.62
2017-05-08T19:50:21.562Z,71.02
2017-05-08T19:52:48.994Z,70.99
2017-05-08T19:55:16.462Z,71.62
2017-05-08T19:57:43.939Z,71.29
2017-05-08T20:00:11.387Z,72.07
2017-05-08T20:02:38.820Z,72.17
2017-05-08T20:05:06.315Z,71.82
2017-05-08T20:07:33.777Z,72.32
2017-05-08T20:10:03.181Z,72.88
2017-05-08T20:12:30.634Z,73.09
2017-05-08T20:14:58.097Z,73.45
2017-05-08T20:17:25.546Z,73.89
2017-05-08T20:19:52.996Z,74.83
2017-05-08T20:22:20.422Z,75.73
2017-05-08T20:24:47.862Z,76.22
2017-05-08T20:27:15.326Z,76.17
2017-05-08T20:29:42.758Z,76.80
2017-05-08T20:32:10.194Z,76.61
2017-05-08T20:34:37.697Z,77.20
2017-05-08T20:37:05.174Z,76.85
2017-05-08T20:39:32.653Z,76.97
2017-05-08T20:42:00.169Z,77.51
2017-05-08T20:44:27.639Z,77.68
2017-05-08T20:46:58.137Z,78.10
2017-05-08T20:49:25.590Z,78.61
2017-05-08T20:51:53.046Z,78.50
2017-05-08T20:54:20.501Z,78.12
2017-05-08T20:56:47.950Z,79.08
2017-05-08T20:59:15.418Z,78.75
2017-05-08T21:01:42.862Z,78.75
2017-05-08T21:04:10.322Z,79.16
2017-05-08T21:06:37.766Z,79.21
2017-05-08T21:09:05.235Z,79.10
2017-05-08T21:11:32.735Z,79.16
2017-05-08T21:14:00.170Z,79.49
2017-05-08T21:16:27.647Z,79.19
2017-05-08T21:18:55.125Z,79.26
2017-05-08T21:21:22.594Z,79.61
2017-05-08T21:23:50.054Z,79.67
2017-05-08T21:26:18.530Z,79.77
2017-05-08T21:28:45.974Z,79.51
2017-05-08T21:31:13.429Z,79.83
2017-05-08T21:33:40.882Z,79.69
2017-05-08T21:36:08.383Z,79.91
2017-05-08T21:38:35.843Z,80.00
2017-05-08T21:41:03.314Z,79.83
2017-05-08T21:43:30.792Z,79.87
2017-05-08T21:45:58.243Z,79.66
2017-05-08T21:48:25.715Z,80.19
2017-05-08T21:50:53.222Z,80.29
2017-05-08T21:53:20.687Z,80.12
2017-05-08T21:55:48.231Z,80.21
2017-05-08T21:58:15.726Z,80.28
2017-05-08T22:00:43.190Z,80.92
2017-05-08T22:03:10.666Z,80.55
2017-05-08T22:05:38.106Z,80.47
2017-05-08T22:08:05.585Z,80.29
2017-05-08T22:10:33.020Z,80.00
2017-05-08T22:13:00.474Z,80.21
2017-05-08T22:15:27.930Z,80.44
2017-05-08T22:17:55.367Z,79.96
2017-05-08T22:20:22.846Z,80.99
2017-05-08T22:22:50.307Z,80.85
2017-05-08T22:25:17.762Z,80.59
2017-05-08T22:27:45.218Z,80.39
2017-05-08T22:30:12.658Z,80.31
2017-05-08T22:32:40.131Z,80.39
2017-05-08T22:35:07.621Z,80.15
2017-05-08T22:37:35.090Z,79.95
2017-05-08T22:40:02.555Z,79.85
2017-05-08T22:42:29.986Z,79.76
2017-05-08T22:44:57.504Z,79.83
2017-05-08T22:47:24.960Z,79.71
2017-05-08T22:49:52.417Z,79.78
2017-05-08T22:52:19.872Z,79.65
2017-05-08T22:54:47.313Z,79.63
2017-05-08T22:57:15.754Z,79.94
2017-05-08T22:59:43.189Z,79.59
2017-05-08T23:02:10.625Z,79.53
2017-05-08T23:04:38.075Z,79.56
2017-05-08T23:07:05.508Z,79.57
2017-05-08T23:09:33.053Z,79.31
2017-05-08T23:12:00.523Z,79.65
2017-05-08T23:14:27.958Z,79.62
2017-05-08T23:16:55.442Z,79.73
2017-05-08T23:19:22.879Z,79.63
2017-05-08T23:21:50.350Z,79.52
2017-05-08T23:24:17.777Z,79.51
2017-05-08T23:26:45.205Z,79.49
2017-05-08T23:29:12.683Z,79.43
2017-05-08T23:31:40.124Z,79.51
2017-05-08T23:34:07.588Z,79.65
2017-05-08T23:36:35.026Z,79.52
2017-05-08T23:39:02.466Z,79.62
2017-05-08T23:41:29.935Z,79.56
2017-05-08T23:43:57.387Z,79.44
2017-05-08T23:46:24.861Z,79.61
2017-05-08T23:48:52.313Z,79.51
2017-05-08T23:51:19.758Z,79.53
2017-05-08T23:53:47.234Z,79.40
2017-05-08T23:56:14.667Z,79.65
2017-05-08T23:58:42.142Z,79.57
